sensor_id;sensor_type;location;lat;lon;timestamp;temperature;humidity
4934;DHT22;2482;49.154;8.254;2023-05-10T00:00:56;14.10;99.90
4934;DHT22;2482;49.154;8.254;2023-05-10T00:03:23;14.10;99.90
4934;DHT22;2482;49.154;8.254;2023-05-10T00:05:50;14.10;99.90
4934;DHT22;2482;49.154;8.254;2023-05-10T00:08:17;14.00;99.90
4934;DHT22;2482;49.154;8.254;2023-05-10T00:10:44;14.00;99.90
4934;DHT22;2482;49.154;8.254;2023-05-10T00:13:11;14.00;99.90
4934;DHT22;2482;49.154;8.254;2023-05-10T00:15:38;14.00;99.90
4934;DHT22;2482;49.154;8.254;2023-05-10T00:18:05;14.00;99.90
4934;DHT22;2482;49.154;8.254;2023-05-10T00:20:33;14.00;99.90
4934;DHT22;2482;49.154;8.254;2023-05-10T00:23:00;13.90;99.90
4934;DHT22;2482;49.154;8.254;2023-05-10T00:25:29;13.90;99.90
4934;DHT22;2482;49.154;8.254;2023-05-10T00:27:57;13.90;99.90
4934;DHT22;2482;49.154;8.254;2023-05-10T00:30:24;13.80;99.90
4934;DHT22;2482;49.154;8.254;2023-05-10T00:32:51;13.90;99.90
4934;DHT22;2482;49.154;8.254;2023-05-10T00:35:18;13.90;99.90
4934;DHT22;2482;49.154;8.254;2023-05-10T00:37:45;13.80;99.90
4934;DHT22;2482;49.154;8.254;2023-05-10T00:40:12;13.90;99.90
4934;DHT22;2482;49.154;8.254;2023-05-10T00:42:41;13.90;99.90
4934;DHT22;2482;49.154;8.254;2023-05-10T00:45:08;13.90;99.90
4934;DHT22;2482;49.154;8.254;2023-05-10T00:47:37;14.00;99.90
4934;DHT22;2482;49.154;8.254;2023-05-10T00:50:05;13.90;99.90
4934;DHT22;2482;49.154;8.254;2023-05-10T00:52:33;14.00;99.90
4934;DHT22;2482;49.154;8.254;2023-05-10T00:55:00;14.00;99.90
4934;DHT22;2482;49.154;8.254;2023-05-10T00:57:27;14.00;99.90
4934;DHT22;2482;49.154;8.254;2023-05-10T00:59:55;14.10;99.90
4934;DHT22;2482;49.154;8.254;2023-05-10T01:02:22;14.10;99.90
4934;DHT22;2482;49.154;8.254;2023-05-10T01:04:49;14.00;99.90
4934;DHT22;2482;49.154;8.254;2023-05-10T01:07:16;14.20;99.90
4934;DHT22;2482;49.154;8.254;2023-05-10T01:09:43;14.20;99.90
4934;DHT22;2482;49.154;8.254;2023-05-10T01:12:10;14.10;99.90
4934;DHT22;2482;49.154;8.254;2023-05-10T01:14:38;14.00;99.90
4934;DHT22;2482;49.154;8.254;2023-05-10T01:17:06;14.10;99.90
4934;DHT22;2482;49.154;8.254;2023-05-10T01:19:34;14.20;99.90
4934;DHT22;2482;49.154;8.254;2023-05-10T01:34:11;14.00;99.90
4934;DHT22;2482;49.154;8.254;2023-05-10T01:36:45;14.10;99.90
4934;DHT22;2482;49.154;8.254;2023-05-10T01:42:11;14.00;99.90
4934;DHT22;2482;49.154;8.254;2023-05-10T01:45:07;14.20;99.90
4934;DHT22;2482;49.154;8.254;2023-05-10T01:47:54;14.10;99.90
4934;DHT22;2482;49.154;8.254;2023-05-10T01:50:30;14.10;99.90
4934;DHT22;2482;49.154;8.254;2023-05-10T01:52:59;14.00;99.90
4934;DHT22;2482;49.154;8.254;2023-05-10T01:55:32;14.00;99.90
4934;DHT22;2482;49.154;8.254;2023-05-10T01:58:10;14.00;99.90
4934;DHT22;2482;49.154;8.254;2023-05-10T02:00:43;14.00;99.90
4934;DHT22;2482;49.154;8.254;2023-05-10T02:03:15;14.10;99.90
4934;DHT22;2482;49.154;8.254;2023-05-10T02:05:43;14.00;99.90
4934;DHT22;2482;49.154;8.254;2023-05-10T02:08:13;14.00;99.90
4934;DHT22;2482;49.154;8.254;2023-05-10T02:10:43;14.00;99.90
4934;DHT22;2482;49.154;8.254;2023-05-10T02:13:12;14.10;99.90
4934;DHT22;2482;49.154;8.254;2023-05-10T02:15:42;14.00;99.90
4934;DHT22;2482;49.154;8.254;2023-05-10T02:18:10;13.90;99.90
4934;DHT22;2482;49.154;8.254;2023-05-10T02:20:38;14.00;99.90
4934;DHT22;2482;49.154;8.254;2023-05-10T02:23:06;14.00;99.90
4934;DHT22;2482;49.154;8.254;2023-05-10T02:25:35;14.00;99.90
4934;DHT22;2482;49.154;8.254;2023-05-10T02:28:06;13.90;99.90
4934;DHT22;2482;49.154;8.254;2023-05-10T02:30:35;14.00;99.90
4934;DHT22;2482;49.154;8.254;2023-05-10T02:33:04;14.00;99.90
4934;DHT22;2482;49.154;8.254;2023-05-10T02:35:32;14.00;99.90
4934;DHT22;2482;49.154;8.254;2023-05-10T02:38:00;14.00;99.90
4934;DHT22;2482;49.154;8.254;2023-05-10T02:40:28;14.00;99.90
4934;DHT22;2482;49.154;8.254;2023-05-10T02:42:57;14.10;99.90
4934;DHT22;2482;49.154;8.254;2023-05-10T02:45:30;14.00;99.90
4934;DHT22;2482;49.154;8.254;2023-05-10T02:47:58;14.00;99.90
4934;DHT22;2482;49.154;8.254;2023-05-10T02:50:27;14.00;99.90
4934;DHT22;2482;49.154;8.254;2023-05-10T02:53:00;13.90;99.90
4934;DHT22;2482;49.154;8.254;2023-05-10T02:55:35;13.90;99.90
4934;DHT22;2482;49.154;8.254;2023-05-10T02:58:03;13.90;99.90
4934;DHT22;2482;49.154;8.254;2023-05-10T03:00:31;13.90;99.90
4934;DHT22;2482;49.154;8.254;2023-05-10T03:02:58;13.80;99.90
4934;DHT22;2482;49.154;8.254;2023-05-10T03:05:25;13.70;99.90
4934;DHT22;2482;49.154;8.254;2023-05-10T03:07:52;13.80;99.90
4934;DHT22;2482;49.154;8.254;2023-05-10T03:10:27;13.90;99.90
4934;DHT22;2482;49.154;8.254;2023-05-10T03:16:29;13.80;99.90
4934;DHT22;2482;49.154;8.254;2023-05-10T03:19:16;13.70;99.90
4934;DHT22;2482;49.154;8.254;2023-05-10T03:21:50;13.70;99.90
4934;DHT22;2482;49.154;8.254;2023-05-10T03:24:21;13.80;99.90
4934;DHT22;2482;49.154;8.254;2023-05-10T03:26:50;13.70;99.90
4934;DHT22;2482;49.154;8.254;2023-05-10T03:29:20;13.70;99.90
4934;DHT22;2482;49.154;8.254;2023-05-10T03:31:50;13.70;99.90
4934;DHT22;2482;49.154;8.254;2023-05-10T03:34:23;13.60;99.90
4934;DHT22;2482;49.154;8.254;2023-05-10T03:36:52;13.50;99.90
4934;DHT22;2482;49.154;8.254;2023-05-10T03:39:19;13.40;99.90
4934;DHT22;2482;49.154;8.254;2023-05-10T03:41:47;13.30;99.90
4934;DHT22;2482;49.154;8.254;2023-05-10T03:44:14;13.30;99.90
4934;DHT22;2482;49.154;8.254;2023-05-10T03:46:42;13.30;99.90
4934;DHT22;2482;49.154;8.254;2023-05-10T03:49:09;13.20;99.90
4934;DHT22;2482;49.154;8.254;2023-05-10T03:51:43;13.30;99.90
4934;DHT22;2482;49.154;8.254;2023-05-10T03:54:10;13.30;99.90
4934;DHT22;2482;49.154;8.254;2023-05-10T03:56:39;13.20;99.90
4934;DHT22;2482;49.154;8.254;2023-05-10T03:59:08;13.20;99.90
4934;DHT22;2482;49.154;8.254;2023-05-10T04:01:35;13.20;99.90
4934;DHT22;2482;49.154;8.254;2023-05-10T04:04:03;13.20;99.90
4934;DHT22;2482;49.154;8.254;2023-05-10T04:06:30;13.30;99.90
4934;DHT22;2482;49.154;8.254;2023-05-10T04:08:57;13.20;99.90
4934;DHT22;2482;49.154;8.254;2023-05-10T04:11:26;13.20;99.90
4934;DHT22;2482;49.154;8.254;2023-05-10T04:13:55;13.20;99.90
4934;DHT22;2482;49.154;8.254;2023-05-10T04:16:22;13.30;99.90
4934;DHT22;2482;49.154;8.254;2023-05-10T04:18:49;13.30;99.90
4934;DHT22;2482;49.154;8.254;2023-05-10T04:21:16;13.30;99.90
4934;DHT22;2482;49.154;8.254;2023-05-10T04:23:44;13.30;99.90
4934;DHT22;2482;49.154;8.254;2023-05-10T04:26:12;13.40;99.90
4934;DHT22;2482;49.154;8.254;2023-05-10T04:28:40;13.40;99.90
4934;DHT22;2482;49.154;8.254;2023-05-10T04:31:09;13.40;99.90
4934;DHT22;2482;49.154;8.254;2023-05-10T04:33:41;13.40;99.90
4934;DHT22;2482;49.154;8.254;2023-05-10T04:36:08;13.40;99.90
4934;DHT22;2482;49.154;8.254;2023-05-10T04:38:37;13.40;99.90
4934;DHT22;2482;49.154;8.254;2023-05-10T04:41:08;13.50;99.90
4934;DHT22;2482;49.154;8.254;2023-05-10T04:43:35;13.50;99.90
4934;DHT22;2482;49.154;8.254;2023-05-10T04:46:03;13.50;99.90
4934;DHT22;2482;49.154;8.254;2023-05-10T04:48:31;13.50;99.90
4934;DHT22;2482;49.154;8.254;2023-05-10T04:50:58;13.60;99.90
4934;DHT22;2482;49.154;8.254;2023-05-10T04:53:26;13.50;99.90
4934;DHT22;2482;49.154;8.254;2023-05-10T04:55:53;13.50;99.90
4934;DHT22;2482;49.154;8.254;2023-05-10T04:58:20;13.50;99.90
4934;DHT22;2482;49.154;8.254;2023-05-10T05:00:48;13.60;99.90
4934;DHT22;2482;49.154;8.254;2023-05-10T05:03:15;13.60;99.90
4934;DHT22;2482;49.154;8.254;2023-05-10T05:05:43;13.60;99.90
4934;DHT22;2482;49.154;8.254;2023-05-10T05:08:11;13.60;99.90
4934;DHT22;2482;49.154;8.254;2023-05-10T05:10:39;13.60;99.90
4934;DHT22;2482;49.154;8.254;2023-05-10T05:13:06;13.50;99.90
4934;DHT22;2482;49.154;8.254;2023-05-10T05:15:34;13.60;99.90
4934;DHT22;2482;49.154;8.254;2023-05-10T05:18:01;13.60;99.90
4934;DHT22;2482;49.154;8.254;2023-05-10T05:20:31;13.70;99.90
4934;DHT22;2482;49.154;8.254;2023-05-10T05:23:01;13.70;99.90
4934;DHT22;2482;49.154;8.254;2023-05-10T05:25:29;13.70;99.90
4934;DHT22;2482;49.154;8.254;2023-05-10T05:27:59;13.60;99.90
4934;DHT22;2482;49.154;8.254;2023-05-10T05:30:29;13.70;99.90
4934;DHT22;2482;49.154;8.254;2023-05-10T05:32:56;13.70;99.90
4934;DHT22;2482;49.154;8.254;2023-05-10T05:35:23;13.80;99.90
4934;DHT22;2482;49.154;8.254;2023-05-10T05:37:50;13.80;99.90
4934;DHT22;2482;49.154;8.254;2023-05-10T05:40:18;13.80;99.90
4934;DHT22;2482;49.154;8.254;2023-05-10T05:42:47;13.90;99.90
4934;DHT22;2482;49.154;8.254;2023-05-10T05:45:15;13.80;99.90
4934;DHT22;2482;49.154;8.254;2023-05-10T05:47:43;13.90;99.90
4934;DHT22;2482;49.154;8.254;2023-05-10T05:50:10;14.00;99.90
4934;DHT22;2482;49.154;8.254;2023-05-10T05:52:37;14.10;99.90
4934;DHT22;2482;49.154;8.254;2023-05-10T05:55:05;14.00;99.90
4934;DHT22;2482;49.154;8.254;2023-05-10T05:57:35;14.00;99.90
4934;DHT22;2482;49.154;8.254;2023-05-10T06:00:02;14.00;99.90
4934;DHT22;2482;49.154;8.254;2023-05-10T06:02:29;14.10;99.90
4934;DHT22;2482;49.154;8.254;2023-05-10T06:04:56;14.20;99.90
4934;DHT22;2482;49.154;8.254;2023-05-10T06:07:23;14.20;99.90
4934;DHT22;2482;49.154;8.254;2023-05-10T06:09:51;14.30;99.90
4934;DHT22;2482;49.154;8.254;2023-05-10T06:12:19;14.30;99.90
4934;DHT22;2482;49.154;8.254;2023-05-10T06:14:47;14.30;99.90
4934;DHT22;2482;49.154;8.254;2023-05-10T06:17:14;14.20;99.90
4934;DHT22;2482;49.154;8.254;2023-05-10T06:19:41;14.20;99.90
4934;DHT22;2482;49.154;8.254;2023-05-10T06:22:08;14.20;99.90
4934;DHT22;2482;49.154;8.254;2023-05-10T06:24:35;14.10;99.90
4934;DHT22;2482;49.154;8.254;2023-05-10T06:27:02;14.10;99.90
4934;DHT22;2482;49.154;8.254;2023-05-10T06:29:30;14.10;99.90
4934;DHT22;2482;49.154;8.254;2023-05-10T06:31:57;14.20;99.90
4934;DHT22;2482;49.154;8.254;2023-05-10T06:34:24;14.30;99.90
4934;DHT22;2482;49.154;8.254;2023-05-10T06:36:51;14.40;99.90
4934;DHT22;2482;49.154;8.254;2023-05-10T06:39:18;14.50;99.90
4934;DHT22;2482;49.154;8.254;2023-05-10T06:41:45;14.40;99.90
4934;DHT22;2482;49.154;8.254;2023-05-10T06:44:12;14.40;99.90
4934;DHT22;2482;49.154;8.254;2023-05-10T06:46:39;14.50;99.90
4934;DHT22;2482;49.154;8.254;2023-05-10T06:49:06;14.50;99.90
4934;DHT22;2482;49.154;8.254;2023-05-10T06:51:33;14.50;99.90
4934;DHT22;2482;49.154;8.254;2023-05-10T06:54:00;14.60;99.90
4934;DHT22;2482;49.154;8.254;2023-05-10T06:56:28;14.60;99.90
4934;DHT22;2482;49.154;8.254;2023-05-10T06:58:55;14.90;99.90
4934;DHT22;2482;49.154;8.254;2023-05-10T07:01:22;15.10;99.90
4934;DHT22;2482;49.154;8.254;2023-05-10T07:03:50;15.20;99.90
4934;DHT22;2482;49.154;8.254;2023-05-10T07:06:17;15.20;99.90
4934;DHT22;2482;49.154;8.254;2023-05-10T07:08:58;15.10;99.90
4934;DHT22;2482;49.154;8.254;2023-05-10T07:11:25;15.10;99.90
4934;DHT22;2482;49.154;8.254;2023-05-10T07:13:52;15.20;99.90
4934;DHT22;2482;49.154;8.254;2023-05-10T07:16:21;15.40;99.90
4934;DHT22;2482;49.154;8.254;2023-05-10T07:18:48;15.50;99.90
4934;DHT22;2482;49.154;8.254;2023-05-10T07:21:17;15.50;99.90
4934;DHT22;2482;49.154;8.254;2023-05-10T07:23:44;15.30;99.90
4934;DHT22;2482;49.154;8.254;2023-05-10T07:26:11;15.50;99.90
4934;DHT22;2482;49.154;8.254;2023-05-10T07:28:38;15.60;99.90
4934;DHT22;2482;49.154;8.254;2023-05-10T07:31:06;15.60;99.90
4934;DHT22;2482;49.154;8.254;2023-05-10T07:33:33;15.80;99.90
4934;DHT22;2482;49.154;8.254;2023-05-10T07:36:00;15.80;99.90
4934;DHT22;2482;49.154;8.254;2023-05-10T07:38:27;15.80;99.90
4934;DHT22;2482;49.154;8.254;2023-05-10T07:40:54;15.50;99.90
4934;DHT22;2482;49.154;8.254;2023-05-10T07:43:23;15.40;99.90
4934;DHT22;2482;49.154;8.254;2023-05-10T07:45:50;15.30;99.90
4934;DHT22;2482;49.154;8.254;2023-05-10T07:48:21;15.30;99.90
4934;DHT22;2482;49.154;8.254;2023-05-10T07:50:50;15.20;99.90
4934;DHT22;2482;49.154;8.254;2023-05-10T07:53:17;15.20;99.90
4934;DHT22;2482;49.154;8.254;2023-05-10T07:55:50;15.20;99.90
4934;DHT22;2482;49.154;8.254;2023-05-10T07:58:18;15.30;99.90
4934;DHT22;2482;49.154;8.254;2023-05-10T08:00:45;15.40;99.90
4934;DHT22;2482;49.154;8.254;2023-05-10T08:03:12;15.30;99.90
4934;DHT22;2482;49.154;8.254;2023-05-10T08:05:39;15.10;99.90
4934;DHT22;2482;49.154;8.254;2023-05-10T08:08:07;15.20;99.90
4934;DHT22;2482;49.154;8.254;2023-05-10T08:10:34;15.20;99.90
4934;DHT22;2482;49.154;8.254;2023-05-10T08:13:01;15.40;99.90
4934;DHT22;2482;49.154;8.254;2023-05-10T08:15:31;15.50;99.90
4934;DHT22;2482;49.154;8.254;2023-05-10T08:17:58;15.40;99.90
4934;DHT22;2482;49.154;8.254;2023-05-10T08:20:25;15.40;99.90
4934;DHT22;2482;49.154;8.254;2023-05-10T08:22:52;15.40;99.90
4934;DHT22;2482;49.154;8.254;2023-05-10T08:25:19;15.80;99.90
4934;DHT22;2482;49.154;8.254;2023-05-10T08:27:46;15.90;99.90
4934;DHT22;2482;49.154;8.254;2023-05-10T08:30:13;16.20;99.90
4934;DHT22;2482;49.154;8.254;2023-05-10T08:32:40;16.30;99.90
4934;DHT22;2482;49.154;8.254;2023-05-10T08:35:07;16.20;99.90
4934;DHT22;2482;49.154;8.254;2023-05-10T08:37:34;16.10;99.90
4934;DHT22;2482;49.154;8.254;2023-05-10T08:40:01;16.00;99.90
4934;DHT22;2482;49.154;8.254;2023-05-10T08:42:30;16.10;99.90
4934;DHT22;2482;49.154;8.254;2023-05-10T08:45:03;16.10;99.90
4934;DHT22;2482;49.154;8.254;2023-05-10T08:47:31;15.80;99.90
4934;DHT22;2482;49.154;8.254;2023-05-10T08:49:58;15.80;99.90
4934;DHT22;2482;49.154;8.254;2023-05-10T08:52:26;16.00;99.90
4934;DHT22;2482;49.154;8.254;2023-05-10T08:54:55;16.00;99.90
4934;DHT22;2482;49.154;8.254;2023-05-10T08:57:22;15.90;99.90
4934;DHT22;2482;49.154;8.254;2023-05-10T08:59:49;16.00;99.90
4934;DHT22;2482;49.154;8.254;2023-05-10T09:02:16;16.10;99.90
4934;DHT22;2482;49.154;8.254;2023-05-10T09:04:45;16.00;99.90
4934;DHT22;2482;49.154;8.254;2023-05-10T09:07:13;16.00;99.90
4934;DHT22;2482;49.154;8.254;2023-05-10T09:09:40;15.90;99.90
4934;DHT22;2482;49.154;8.254;2023-05-10T09:12:08;15.90;99.90
4934;DHT22;2482;49.154;8.254;2023-05-10T09:14:37;15.90;99.90
4934;DHT22;2482;49.154;8.254;2023-05-10T09:17:05;16.10;99.90
4934;DHT22;2482;49.154;8.254;2023-05-10T09:19:33;16.40;99.90
4934;DHT22;2482;49.154;8.254;2023-05-10T09:22:00;16.50;99.90
4934;DHT22;2482;49.154;8.254;2023-05-10T09:24:30;16.30;99.90
4934;DHT22;2482;49.154;8.254;2023-05-10T09:26:57;16.20;99.90
4934;DHT22;2482;49.154;8.254;2023-05-10T09:29:39;16.00;99.90
4934;DHT22;2482;49.154;8.254;2023-05-10T09:32:09;15.80;99.90
4934;DHT22;2482;49.154;8.254;2023-05-10T09:34:39;15.60;99.90
4934;DHT22;2482;49.154;8.254;2023-05-10T09:37:07;15.40;99.90
4934;DHT22;2482;49.154;8.254;2023-05-10T09:39:37;15.50;99.90
4934;DHT22;2482;49.154;8.254;2023-05-10T09:42:06;15.80;99.90
4934;DHT22;2482;49.154;8.254;2023-05-10T09:44:36;15.90;99.90
4934;DHT22;2482;49.154;8.254;2023-05-10T09:47:05;16.30;99.90
4934;DHT22;2482;49.154;8.254;2023-05-10T09:49:32;16.60;99.90
4934;DHT22;2482;49.154;8.254;2023-05-10T09:52:08;16.70;99.90
4934;DHT22;2482;49.154;8.254;2023-05-10T09:54:35;16.80;99.90
4934;DHT22;2482;49.154;8.254;2023-05-10T09:57:03;16.70;99.90
4934;DHT22;2482;49.154;8.254;2023-05-10T09:59:33;16.40;99.90
4934;DHT22;2482;49.154;8.254;2023-05-10T10:02:01;16.50;99.90
4934;DHT22;2482;49.154;8.254;2023-05-10T10:04:30;16.80;99.90
4934;DHT22;2482;49.154;8.254;2023-05-10T10:07:02;17.00;99.90
4934;DHT22;2482;49.154;8.254;2023-05-10T10:09:33;17.50;99.90
4934;DHT22;2482;49.154;8.254;2023-05-10T10:12:03;17.60;99.90
4934;DHT22;2482;49.154;8.254;2023-05-10T10:14:31;17.80;99.90
4934;DHT22;2482;49.154;8.254;2023-05-10T10:17:00;17.70;99.90
4934;DHT22;2482;49.154;8.254;2023-05-10T10:19:33;17.60;99.90
4934;DHT22;2482;49.154;8.254;2023-05-10T10:22:00;17.90;99.90
4934;DHT22;2482;49.154;8.254;2023-05-10T10:24:27;18.10;99.90
4934;DHT22;2482;49.154;8.254;2023-05-10T10:26:59;17.90;99.90
4934;DHT22;2482;49.154;8.254;2023-05-10T10:29:52;17.70;99.90
4934;DHT22;2482;49.154;8.254;2023-05-10T10:35:36;17.70;99.90
4934;DHT22;2482;49.154;8.254;2023-05-10T10:38:03;17.90;99.90
4934;DHT22;2482;49.154;8.254;2023-05-10T10:40:32;17.70;99.90
4934;DHT22;2482;49.154;8.254;2023-05-10T10:43:26;17.50;99.90
4934;DHT22;2482;49.154;8.254;2023-05-10T10:46:20;17.50;99.90
4934;DHT22;2482;49.154;8.254;2023-05-10T10:51:39;16.90;99.90
4934;DHT22;2482;49.154;8.254;2023-05-10T10:54:10;16.70;99.90
4934;DHT22;2482;49.154;8.254;2023-05-10T10:56:37;16.50;99.90
4934;DHT22;2482;49.154;8.254;2023-05-10T10:59:04;16.40;99.90
4934;DHT22;2482;49.154;8.254;2023-05-10T11:01:34;16.40;99.90
4934;DHT22;2482;49.154;8.254;2023-05-10T11:06:36;16.30;99.90
4934;DHT22;2482;49.154;8.254;2023-05-10T11:09:10;16.20;99.90
4934;DHT22;2482;49.154;8.254;2023-05-10T11:11:54;16.30;99.90
4934;DHT22;2482;49.154;8.254;2023-05-10T11:14:25;16.40;99.90
4934;DHT22;2482;49.154;8.254;2023-05-10T11:16:52;16.30;99.90
4934;DHT22;2482;49.154;8.254;2023-05-10T11:19:19;16.60;99.90
4934;DHT22;2482;49.154;8.254;2023-05-10T11:21:51;16.80;99.90
4934;DHT22;2482;49.154;8.254;2023-05-10T11:24:56;16.60;99.90
4934;DHT22;2482;49.154;8.254;2023-05-10T11:27:24;16.50;99.90
4934;DHT22;2482;49.154;8.254;2023-05-10T11:29:52;16.70;99.90
4934;DHT22;2482;49.154;8.254;2023-05-10T11:32:19;16.70;99.90
4934;DHT22;2482;49.154;8.254;2023-05-10T11:34:47;16.90;99.90
4934;DHT22;2482;49.154;8.254;2023-05-10T11:37:15;16.90;99.90
4934;DHT22;2482;49.154;8.254;2023-05-10T11:39:45;16.90;99.90
4934;DHT22;2482;49.154;8.254;2023-05-10T11:42:16;17.10;99.90
4934;DHT22;2482;49.154;8.254;2023-05-10T11:44:45;17.30;99.90
4934;DHT22;2482;49.154;8.254;2023-05-10T11:47:13;17.40;99.90
4934;DHT22;2482;49.154;8.254;2023-05-10T11:49:43;17.20;99.90
4934;DHT22;2482;49.154;8.254;2023-05-10T11:52:11;17.10;99.90
4934;DHT22;2482;49.154;8.254;2023-05-10T11:54:59;17.10;99.90
4934;DHT22;2482;49.154;8.254;2023-05-10T11:57:27;17.40;99.90
4934;DHT22;2482;49.154;8.254;2023-05-10T11:59:56;17.60;99.90
4934;DHT22;2482;49.154;8.254;2023-05-10T12:02:24;17.60;99.90
4934;DHT22;2482;49.154;8.254;2023-05-10T12:04:51;17.50;99.90
4934;DHT22;2482;49.154;8.254;2023-05-10T12:07:18;17.50;99.90
4934;DHT22;2482;49.154;8.254;2023-05-10T12:10:11;17.70;99.90
4934;DHT22;2482;49.154;8.254;2023-05-10T12:12:47;17.90;99.90
4934;DHT22;2482;49.154;8.254;2023-05-10T12:15:23;18.00;99.90
4934;DHT22;2482;49.154;8.254;2023-05-10T12:17:51;18.10;99.90
4934;DHT22;2482;49.154;8.254;2023-05-10T12:20:22;17.90;99.90
4934;DHT22;2482;49.154;8.254;2023-05-10T12:22:56;18.00;99.90
4934;DHT22;2482;49.154;8.254;2023-05-10T12:25:30;18.30;99.90
4934;DHT22;2482;49.154;8.254;2023-05-10T12:28:03;18.20;99.90
4934;DHT22;2482;49.154;8.254;2023-05-10T12:30:33;18.20;99.90
4934;DHT22;2482;49.154;8.254;2023-05-10T12:33:09;18.20;99.90
4934;DHT22;2482;49.154;8.254;2023-05-10T12:35:47;18.00;99.90
4934;DHT22;2482;49.154;8.254;2023-05-10T12:38:28;18.40;99.90
4934;DHT22;2482;49.154;8.254;2023-05-10T12:41:04;18.20;99.90
4934;DHT22;2482;49.154;8.254;2023-05-10T12:43:33;18.40;99.90
4934;DHT22;2482;49.154;8.254;2023-05-10T12:46:05;18.20;99.90
4934;DHT22;2482;49.154;8.254;2023-05-10T12:48:38;18.00;99.90
4934;DHT22;2482;49.154;8.254;2023-05-10T12:51:06;18.10;99.90
4934;DHT22;2482;49.154;8.254;2023-05-10T12:53:39;18.30;99.90
4934;DHT22;2482;49.154;8.254;2023-05-10T12:56:10;18.00;99.90
4934;DHT22;2482;49.154;8.254;2023-05-10T12:58:38;18.20;99.90
4934;DHT22;2482;49.154;8.254;2023-05-10T13:01:05;18.40;99.90
4934;DHT22;2482;49.154;8.254;2023-05-10T13:03:32;18.40;99.90
4934;DHT22;2482;49.154;8.254;2023-05-10T13:05:59;18.60;99.90
4934;DHT22;2482;49.154;8.254;2023-05-10T13:08:27;18.90;99.90
4934;DHT22;2482;49.154;8.254;2023-05-10T13:11:01;19.00;99.90
4934;DHT22;2482;49.154;8.254;2023-05-10T13:13:29;19.00;99.90
4934;DHT22;2482;49.154;8.254;2023-05-10T13:15:56;18.90;99.90
4934;DHT22;2482;49.154;8.254;2023-05-10T13:18:23;18.70;99.90
4934;DHT22;2482;49.154;8.254;2023-05-10T13:20:51;18.80;99.90
4934;DHT22;2482;49.154;8.254;2023-05-10T13:23:23;18.90;99.90
4934;DHT22;2482;49.154;8.254;2023-05-10T13:25:50;19.20;99.90
4934;DHT22;2482;49.154;8.254;2023-05-10T13:28:17;19.20;99.90
4934;DHT22;2482;49.154;8.254;2023-05-10T13:30:44;19.40;99.90
4934;DHT22;2482;49.154;8.254;2023-05-10T13:33:11;19.10;99.90
4934;DHT22;2482;49.154;8.254;2023-05-10T13:35:38;19.10;99.90
4934;DHT22;2482;49.154;8.254;2023-05-10T13:38:05;19.20;99.90
4934;DHT22;2482;49.154;8.254;2023-05-10T13:40:34;19.30;99.90
4934;DHT22;2482;49.154;8.254;2023-05-10T13:43:03;19.40;99.90
4934;DHT22;2482;49.154;8.254;2023-05-10T13:45:30;19.10;99.90
4934;DHT22;2482;49.154;8.254;2023-05-10T13:47:57;19.20;99.90
4934;DHT22;2482;49.154;8.254;2023-05-10T13:50:24;19.30;99.90
4934;DHT22;2482;49.154;8.254;2023-05-10T13:52:52;19.40;99.90
4934;DHT22;2482;49.154;8.254;2023-05-10T13:55:19;19.40;99.90
4934;DHT22;2482;49.154;8.254;2023-05-10T13:57:46;19.80;99.90
4934;DHT22;2482;49.154;8.254;2023-05-10T14:00:14;20.00;99.90
4934;DHT22;2482;49.154;8.254;2023-05-10T14:02:42;20.30;99.90
4934;DHT22;2482;49.154;8.254;2023-05-10T14:05:09;20.30;99.90
4934;DHT22;2482;49.154;8.254;2023-05-10T14:07:37;20.20;99.90
4934;DHT22;2482;49.154;8.254;2023-05-10T14:10:04;20.40;99.90
4934;DHT22;2482;49.154;8.254;2023-05-10T14:12:32;20.80;99.90
4934;DHT22;2482;49.154;8.254;2023-05-10T14:14:59;20.90;99.90
4934;DHT22;2482;49.154;8.254;2023-05-10T14:17:26;20.70;99.90
4934;DHT22;2482;49.154;8.254;2023-05-10T14:19:53;20.50;99.90
4934;DHT22;2482;49.154;8.254;2023-05-10T14:22:20;20.00;99.90
4934;DHT22;2482;49.154;8.254;2023-05-10T14:24:48;19.90;99.90
4934;DHT22;2482;49.154;8.254;2023-05-10T14:27:15;19.90;99.90
4934;DHT22;2482;49.154;8.254;2023-05-10T14:29:42;20.20;99.90
4934;DHT22;2482;49.154;8.254;2023-05-10T14:32:09;20.30;99.90
4934;DHT22;2482;49.154;8.254;2023-05-10T14:34:38;20.40;99.90
4934;DHT22;2482;49.154;8.254;2023-05-10T14:37:05;20.70;99.90
4934;DHT22;2482;49.154;8.254;2023-05-10T14:39:33;20.80;99.90
4934;DHT22;2482;49.154;8.254;2023-05-10T14:42:00;20.30;99.90
4934;DHT22;2482;49.154;8.254;2023-05-10T14:44:29;20.10;99.90
4934;DHT22;2482;49.154;8.254;2023-05-10T14:46:57;19.70;99.90
4934;DHT22;2482;49.154;8.254;2023-05-10T14:49:25;19.30;99.90
4934;DHT22;2482;49.154;8.254;2023-05-10T14:51:52;19.50;99.90
4934;DHT22;2482;49.154;8.254;2023-05-10T14:54:19;20.00;99.90
4934;DHT22;2482;49.154;8.254;2023-05-10T14:56:47;20.00;99.90
4934;DHT22;2482;49.154;8.254;2023-05-10T14:59:16;19.80;99.90
4934;DHT22;2482;49.154;8.254;2023-05-10T15:01:43;19.60;99.90
4934;DHT22;2482;49.154;8.254;2023-05-10T15:04:11;19.70;99.90
4934;DHT22;2482;49.154;8.254;2023-05-10T15:06:40;19.60;99.90
4934;DHT22;2482;49.154;8.254;2023-05-10T15:09:07;19.90;99.90
4934;DHT22;2482;49.154;8.254;2023-05-10T15:11:35;19.90;99.90
4934;DHT22;2482;49.154;8.254;2023-05-10T15:14:02;19.60;99.90
4934;DHT22;2482;49.154;8.254;2023-05-10T15:16:30;19.00;99.90
4934;DHT22;2482;49.154;8.254;2023-05-10T15:19:01;18.90;99.90
4934;DHT22;2482;49.154;8.254;2023-05-10T15:21:28;18.80;99.90
4934;DHT22;2482;49.154;8.254;2023-05-10T15:23:58;18.70;99.90
4934;DHT22;2482;49.154;8.254;2023-05-10T15:26:27;18.60;99.90
4934;DHT22;2482;49.154;8.254;2023-05-10T15:28:54;18.30;99.90
4934;DHT22;2482;49.154;8.254;2023-05-10T15:31:21;17.80;99.90
4934;DHT22;2482;49.154;8.254;2023-05-10T15:33:48;17.70;99.90
4934;DHT22;2482;49.154;8.254;2023-05-10T15:36:15;17.80;99.90
4934;DHT22;2482;49.154;8.254;2023-05-10T15:38:45;17.80;99.90
4934;DHT22;2482;49.154;8.254;2023-05-10T15:41:13;17.80;99.90
4934;DHT22;2482;49.154;8.254;2023-05-10T15:43:40;18.00;99.90
4934;DHT22;2482;49.154;8.254;2023-05-10T15:46:07;17.90;99.90
4934;DHT22;2482;49.154;8.254;2023-05-10T15:48:34;18.00;99.90
4934;DHT22;2482;49.154;8.254;2023-05-10T15:51:01;18.10;99.90
4934;DHT22;2482;49.154;8.254;2023-05-10T15:53:28;18.10;99.90
4934;DHT22;2482;49.154;8.254;2023-05-10T15:55:55;18.00;99.90
4934;DHT22;2482;49.154;8.254;2023-05-10T15:58:22;17.70;99.90
4934;DHT22;2482;49.154;8.254;2023-05-10T16:00:50;17.70;99.90
4934;DHT22;2482;49.154;8.254;2023-05-10T16:03:17;17.50;99.90
4934;DHT22;2482;49.154;8.254;2023-05-10T16:05:44;17.70;99.90
4934;DHT22;2482;49.154;8.254;2023-05-10T16:08:11;17.90;99.90
4934;DHT22;2482;49.154;8.254;2023-05-10T16:10:39;17.80;99.90
4934;DHT22;2482;49.154;8.254;2023-05-10T16:13:06;17.80;99.90
4934;DHT22;2482;49.154;8.254;2023-05-10T16:15:33;18.00;99.90
4934;DHT22;2482;49.154;8.254;2023-05-10T16:18:00;17.80;99.90
4934;DHT22;2482;49.154;8.254;2023-05-10T16:20:28;17.50;99.90
4934;DHT22;2482;49.154;8.254;2023-05-10T16:22:55;17.40;99.90
4934;DHT22;2482;49.154;8.254;2023-05-10T16:25:24;17.50;99.90
4934;DHT22;2482;49.154;8.254;2023-05-10T16:27:53;17.70;99.90
4934;DHT22;2482;49.154;8.254;2023-05-10T16:30:20;17.70;99.90
4934;DHT22;2482;49.154;8.254;2023-05-10T16:32:49;17.70;99.90
4934;DHT22;2482;49.154;8.254;2023-05-10T16:35:17;17.60;99.90
4934;DHT22;2482;49.154;8.254;2023-05-10T16:37:44;17.70;99.90
4934;DHT22;2482;49.154;8.254;2023-05-10T16:40:11;17.60;99.90